createdAt,value
2022-09-06T00:01:24.554Z,16.00
2022-09-06T00:03:51.414Z,16.00
2022-09-06T00:06:20.185Z,16.00
2022-09-06T00:08:48.041Z,15.90
2022-09-06T00:11:16.518Z,15.90
2022-09-06T00:13:43.964Z,15.80
2022-09-06T00:16:26.304Z,15.80
2022-09-06T00:18:56.034Z,15.80
2022-09-06T00:21:30.744Z,15.70
2022-09-06T00:23:57.514Z,15.70
2022-09-06T00:26:24.692Z,15.70
2022-09-06T00:28:51.602Z,15.60
2022-09-06T00:31:24.246Z,15.60
2022-09-06T00:33:51.559Z,15.60
2022-09-06T00:36:19.691Z,15.50
2022-09-06T00:38:46.564Z,15.50
2022-09-06T00:41:15.331Z,15.50
2022-09-06T00:43:43.022Z,15.50
2022-09-06T00:46:15.335Z,15.50
2022-09-06T00:48:43.132Z,15.50
2022-09-06T00:51:13.089Z,15.50
2022-09-06T00:53:39.970Z,15.50
2022-09-06T00:56:07.345Z,15.60
2022-09-06T00:58:34.316Z,15.60
2022-09-06T01:01:01.430Z,15.60
2022-09-06T01:03:28.382Z,15.60
2022-09-06T01:06:20.209Z,15.60
2022-09-06T01:09:14.995Z,15.60
2022-09-06T01:12:07.531Z,15.50
2022-09-06T01:15:06.114Z,15.50
2022-09-06T01:17:53.667Z,15.50
2022-09-06T01:20:42.827Z,15.50
2022-09-06T01:23:24.856Z,15.50
2022-09-06T01:26:12.328Z,15.40
2022-09-06T01:28:44.968Z,15.40
2022-09-06T01:31:36.910Z,15.40
2022-09-06T01:34:03.675Z,15.40
2022-09-06T01:36:36.060Z,15.40
2022-09-06T01:39:03.285Z,15.40
2022-09-06T01:41:30.817Z,15.40
2022-09-06T01:43:57.996Z,15.50
2022-09-06T01:46:39.482Z,15.50
2022-09-06T01:49:21.743Z,15.50
2022-09-06T01:52:12.942Z,15.50
2022-09-06T01:55:22.269Z,15.50
2022-09-06T01:58:04.371Z,15.50
2022-09-06T02:00:32.731Z,15.50
2022-09-06T02:03:25.406Z,15.50
2022-09-06T02:05:56.262Z,15.50
2022-09-06T02:08:44.598Z,15.50
2022-09-06T02:11:14.481Z,15.60
2022-09-06T02:13:54.998Z,15.60
2022-09-06T02:16:25.470Z,15.60
2022-09-06T02:19:18.804Z,15.60
2022-09-06T02:21:47.257Z,15.60
2022-09-06T02:24:19.510Z,15.60
2022-09-06T02:26:46.962Z,15.60
2022-09-06T02:29:14.302Z,15.70
2022-09-06T02:31:48.865Z,15.70
2022-09-06T02:34:18.177Z,15.70
2022-09-06T02:36:45.305Z,15.70
2022-09-06T02:39:12.755Z,15.70
2022-09-06T02:41:42.419Z,15.70
2022-09-06T02:44:09.374Z,15.70
2022-09-06T02:46:36.214Z,15.70
2022-09-06T02:49:03.751Z,15.70
2022-09-06T02:51:30.981Z,15.70
2022-09-06T02:53:57.818Z,15.70
2022-09-06T02:56:25.001Z,15.70
2022-09-06T02:58:52.007Z,15.80
2022-09-06T03:01:18.915Z,15.80
2022-09-06T03:03:45.738Z,15.80
2022-09-06T03:06:12.757Z,15.80
2022-09-06T03:08:39.665Z,15.80
2022-09-06T03:11:06.647Z,15.80
2022-09-06T03:13:33.603Z,15.80
2022-09-06T03:16:00.798Z,15.80
2022-09-06T03:18:29.921Z,15.80
2022-09-06T03:20:57.593Z,15.80
2022-09-06T03:23:26.624Z,15.80
2022-09-06T03:25:53.775Z,15.80
2022-09-06T03:28:20.950Z,15.80
2022-09-06T03:30:49.595Z,15.80
2022-09-06T03:33:17.006Z,15.80
2022-09-06T03:35:52.134Z,15.80
2022-09-06T03:38:19.053Z,15.80
2022-09-06T03:40:47.032Z,15.80
2022-09-06T03:43:14.445Z,15.80
2022-09-06T03:45:45.984Z,15.80
2022-09-06T03:48:12.901Z,15.70
2022-09-06T03:50:44.714Z,15.70
2022-09-06T03:53:11.833Z,15.70
2022-09-06T03:55:39.223Z,15.70
2022-09-06T03:58:06.084Z,15.70
2022-09-06T04:00:33.665Z,15.70
2022-09-06T04:03:01.818Z,15.60
2022-09-06T04:05:28.884Z,15.60
2022-09-06T04:07:58.368Z,15.60
2022-09-06T04:10:25.167Z,15.60
2022-09-06T04:12:52.102Z,15.60
2022-09-06T04:15:18.929Z,15.50
2022-09-06T04:17:46.734Z,15.50
2022-09-06T04:20:14.633Z,15.50
2022-09-06T04:22:41.716Z,15.40
2022-09-06T04:25:09.302Z,15.40
2022-09-06T04:27:36.148Z,15.30
2022-09-06T04:30:03.701Z,15.30
2022-09-06T04:32:32.670Z,15.30
2022-09-06T04:34:59.583Z,15.20
2022-09-06T04:37:26.440Z,15.20
2022-09-06T04:39:54.257Z,15.10
2022-09-06T04:42:21.181Z,15.10
2022-09-06T04:44:47.980Z,15.00
2022-09-06T04:47:15.924Z,15.00
2022-09-06T04:49:42.780Z,15.00
2022-09-06T04:52:09.890Z,14.90
2022-09-06T04:54:36.794Z,14.90
2022-09-06T04:57:03.813Z,14.90
2022-09-06T04:59:30.630Z,14.90
2022-09-06T05:01:57.496Z,14.90
2022-09-06T05:04:24.555Z,14.90
2022-09-06T05:07:03.398Z,14.90
2022-09-06T05:09:30.529Z,14.90
2022-09-06T05:11:57.660Z,14.90
2022-09-06T05:14:24.593Z,14.90
2022-09-06T05:16:51.602Z,14.90
2022-09-06T05:19:19.255Z,14.90
2022-09-06T05:21:46.291Z,14.90
2022-09-06T05:24:13.269Z,15.00
2022-09-06T05:26:40.086Z,15.00
2022-09-06T05:29:06.892Z,15.10
2022-09-06T05:31:34.890Z,15.10
2022-09-06T05:34:01.783Z,15.20
2022-09-06T05:36:30.316Z,15.20
2022-09-06T05:38:57.860Z,15.30
2022-09-06T05:41:24.891Z,15.30
2022-09-06T05:43:51.786Z,15.40
2022-09-06T05:46:18.747Z,15.40
2022-09-06T05:48:52.255Z,15.50
2022-09-06T05:51:19.108Z,15.50
2022-09-06T05:53:46.036Z,15.60
2022-09-06T05:56:17.963Z,15.60
2022-09-06T05:58:44.899Z,15.60
2022-09-06T06:01:17.681Z,15.60
2022-09-06T06:04:18.534Z,15.60
2022-09-06T06:06:46.784Z,15.60
2022-09-06T06:09:14.346Z,15.60
2022-09-06T06:11:41.446Z,15.60
2022-09-06T06:14:08.999Z,15.60
2022-09-06T06:16:36.034Z,15.60
2022-09-06T06:19:03.142Z,15.70
2022-09-06T06:21:31.781Z,15.70
2022-09-06T06:24:03.391Z,15.70
2022-09-06T06:26:32.673Z,15.70
2022-09-06T06:29:02.077Z,15.70
2022-09-06T06:31:30.868Z,15.70
2022-09-06T06:33:58.410Z,15.70
2022-09-06T06:36:27.174Z,15.70
2022-09-06T06:38:55.452Z,15.70
2022-09-06T06:41:24.432Z,15.80
2022-09-06T06:43:55.976Z,15.80
2022-09-06T06:46:24.893Z,15.90
2022-09-06T06:48:54.928Z,15.90
2022-09-06T06:51:27.156Z,15.90
2022-09-06T06:54:04.753Z,15.90
2022-09-06T06:56:37.270Z,16.00
2022-09-06T06:59:06.985Z,16.00
2022-09-06T07:01:35.350Z,16.00
2022-09-06T07:04:02.827Z,16.10
2022-09-06T07:09:18.549Z,16.10
2022-09-06T07:11:46.224Z,16.20
2022-09-06T07:14:13.075Z,16.20
2022-09-06T07:16:39.943Z,16.20
2022-09-06T07:19:07.116Z,16.30
2022-09-06T07:21:37.214Z,16.40
2022-09-06T07:24:08.546Z,16.40
2022-09-06T07:26:37.719Z,16.50
2022-09-06T07:29:06.105Z,16.60
2022-09-06T07:34:25.805Z,16.60
2022-09-06T07:36:53.967Z,16.70
2022-09-06T07:39:20.969Z,16.70
2022-09-06T07:41:47.846Z,16.80
2022-09-06T07:44:15.433Z,16.80
2022-09-06T07:55:24.089Z,17.00
2022-09-06T07:57:50.918Z,17.10
2022-09-06T08:00:18.581Z,17.10
2022-09-06T08:02:45.398Z,17.20
2022-09-06T08:10:51.175Z,17.40
2022-09-06T08:13:17.998Z,17.50
2022-09-06T08:15:44.881Z,17.60
2022-09-06T08:18:12.083Z,17.60
2022-09-06T08:20:38.926Z,17.60
2022-09-06T08:23:11.853Z,17.60
2022-09-06T08:25:38.814Z,17.70
2022-09-06T08:28:05.681Z,17.70
2022-09-06T08:30:33.414Z,17.70
2022-09-06T08:33:00.208Z,17.70
2022-09-06T08:35:27.271Z,17.70
2022-09-06T08:37:54.142Z,17.70
2022-09-06T08:40:22.349Z,17.70
2022-09-06T08:42:51.887Z,17.80
2022-09-06T08:45:19.528Z,17.80
2022-09-06T08:47:46.343Z,18.00
2022-09-06T08:50:13.183Z,18.10
2022-09-06T08:53:18.278Z,18.20
2022-09-06T08:55:55.051Z,18.20
2022-09-06T08:58:47.008Z,18.20
2022-09-06T09:01:19.424Z,18.20
2022-09-06T09:03:46.875Z,18.30
2022-09-06T09:06:13.739Z,18.40
2022-09-06T09:08:54.052Z,18.50
2022-09-06T09:11:23.192Z,18.60
2022-09-06T09:14:12.324Z,18.80
2022-09-06T09:16:39.245Z,18.90
2022-09-06T09:19:06.662Z,19.00
2022-09-06T09:21:36.406Z,19.10
2022-09-06T09:24:09.663Z,19.30
2022-09-06T09:26:54.346Z,19.40
2022-09-06T09:29:26.841Z,19.40
2022-09-06T09:31:55.702Z,19.40
2022-09-06T09:34:36.224Z,19.60
2022-09-06T09:40:46.314Z,20.20
2022-09-06T09:43:23.465Z,20.60
2022-09-06T09:46:11.737Z,20.50
2022-09-06T09:48:39.524Z,20.60
2022-09-06T09:51:25.457Z,20.50
2022-09-06T09:54:01.250Z,20.70
2022-09-06T09:56:53.513Z,21.00
2022-09-06T09:59:32.154Z,21.30
2022-09-06T10:02:01.571Z,21.60
2022-09-06T10:07:15.089Z,21.20
2022-09-06T10:09:43.890Z,21.00
2022-09-06T10:12:20.210Z,20.80
2022-09-06T10:14:49.038Z,20.80
2022-09-06T10:17:21.410Z,20.70
2022-09-06T10:19:49.926Z,20.60
2022-09-06T10:22:26.189Z,20.50
2022-09-06T10:25:30.673Z,20.50
2022-09-06T10:28:19.015Z,20.40
2022-09-06T10:31:08.079Z,20.30
2022-09-06T10:34:17.841Z,20.40
2022-09-06T10:37:15.105Z,20.40
2022-09-06T10:40:10.138Z,20.70
2022-09-06T10:42:48.357Z,20.80
2022-09-06T10:45:42.482Z,20.90
2022-09-06T10:48:39.264Z,21.00
2022-09-06T10:51:27.927Z,21.30
2022-09-06T10:54:00.913Z,21.50
2022-09-06T10:56:52.357Z,21.90
2022-09-06T10:59:52.152Z,22.10
2022-09-06T11:05:52.542Z,22.20
2022-09-06T11:08:53.557Z,22.00
2022-09-06T11:11:53.234Z,21.80
2022-09-06T11:14:21.077Z,21.80
2022-09-06T11:17:03.314Z,21.70
2022-09-06T11:19:38.846Z,21.80
2022-09-06T11:22:11.635Z,21.80
2022-09-06T11:25:03.809Z,21.80
2022-09-06T11:27:30.550Z,21.80
2022-09-06T11:29:59.645Z,21.80
2022-09-06T11:33:31.427Z,21.70
2022-09-06T11:36:35.583Z,21.70
2022-09-06T11:39:04.615Z,21.70
2022-09-06T11:41:40.940Z,21.80
2022-09-06T11:44:12.913Z,21.80
2022-09-06T11:46:42.818Z,21.80
2022-09-06T11:49:16.048Z,21.80
2022-09-06T11:51:44.753Z,21.80
2022-09-06T11:54:23.176Z,21.80
2022-09-06T11:56:57.489Z,21.80
2022-09-06T11:59:30.357Z,21.80
2022-09-06T12:02:02.342Z,21.90
2022-09-06T12:05:09.458Z,21.90
2022-09-06T12:07:37.866Z,21.80
2022-09-06T12:10:30.731Z,21.60
2022-09-06T12:12:58.443Z,21.50
2022-09-06T12:15:52.740Z,21.50
2022-09-06T12:18:47.662Z,21.50
2022-09-06T12:21:36.364Z,21.50
2022-09-06T12:24:04.475Z,21.50
2022-09-06T12:26:54.464Z,21.60
2022-09-06T12:29:26.597Z,21.60
2022-09-06T12:32:01.677Z,21.60
2022-09-06T12:34:34.625Z,21.50
2022-09-06T12:37:07.226Z,21.50
2022-09-06T12:39:34.875Z,21.40
2022-09-06T12:42:07.253Z,21.30
2022-09-06T12:44:45.746Z,21.20
2022-09-06T12:47:29.222Z,21.10
2022-09-06T12:50:31.491Z,21.20
2022-09-06T12:53:00.721Z,21.20
2022-09-06T12:55:34.840Z,21.30
2022-09-06T12:58:07.429Z,21.30
2022-09-06T13:00:40.618Z,21.30
2022-09-06T13:03:30.723Z,21.20
2022-09-06T13:05:58.916Z,21.10
2022-09-06T13:08:38.936Z,21.10
2022-09-06T13:11:11.099Z,21.20
2022-09-06T13:13:46.988Z,21.20
2022-09-06T13:16:19.929Z,21.20
2022-09-06T13:18:46.809Z,21.20
2022-09-06T13:21:35.624Z,21.20
2022-09-06T13:24:17.972Z,21.30
2022-09-06T13:26:44.824Z,21.30
2022-09-06T13:29:17.763Z,21.40
2022-09-06T13:31:49.208Z,21.40
2022-09-06T13:34:26.635Z,21.40
2022-09-06T13:37:14.399Z,21.40
2022-09-06T13:39:44.115Z,21.50
2022-09-06T13:42:24.050Z,21.50
2022-09-06T13:44:53.743Z,21.50
2022-09-06T13:47:20.745Z,21.60
2022-09-06T13:49:51.079Z,21.50
2022-09-06T13:52:18.355Z,21.50
2022-09-06T13:54:58.633Z,21.40
2022-09-06T13:57:25.912Z,21.30
2022-09-06T13:59:53.197Z,21.20
2022-09-06T14:02:20.964Z,21.20
2022-09-06T14:04:47.948Z,21.10
2022-09-06T14:07:15.671Z,21.10
2022-09-06T14:09:44.393Z,21.00
2022-09-06T14:12:11.326Z,21.00
2022-09-06T14:14:38.276Z,21.00
2022-09-06T14:17:05.360Z,21.00
2022-09-06T14:19:33.102Z,20.90
2022-09-06T14:22:00.117Z,20.90
2022-09-06T14:24:26.948Z,20.90
2022-09-06T14:26:54.300Z,20.90
2022-09-06T14:29:21.516Z,20.90
2022-09-06T14:31:51.268Z,20.90
2022-09-06T14:34:18.415Z,20.90
2022-09-06T14:36:45.422Z,21.00
2022-09-06T14:39:12.302Z,21.00
2022-09-06T14:41:39.260Z,20.90
2022-09-06T14:44:06.125Z,20.90
2022-09-06T14:46:33.025Z,20.90
2022-09-06T14:49:09.977Z,21.00
2022-09-06T14:51:38.340Z,20.90
2022-09-06T14:54:09.296Z,20.90
2022-09-06T14:56:38.201Z,20.80
2022-09-06T14:59:05.183Z,20.70
2022-09-06T15:01:38.067Z,20.60
2022-09-06T15:04:08.224Z,20.60
2022-09-06T15:06:37.046Z,20.50
2022-09-06T15:09:05.352Z,20.50
2022-09-06T15:11:36.444Z,20.40
2022-09-06T15:14:06.270Z,20.40
2022-09-06T15:16:33.099Z,20.40
2022-09-06T15:19:00.073Z,20.40
2022-09-06T15:21:26.945Z,20.30
2022-09-06T15:23:53.884Z,20.30
2022-09-06T15:26:21.403Z,20.20
2022-09-06T15:28:48.629Z,20.20
2022-09-06T15:31:15.765Z,20.10
2022-09-06T15:33:44.846Z,20.10
2022-09-06T15:36:12.145Z,20.10
2022-09-06T15:38:50.517Z,20.10
2022-09-06T15:41:20.980Z,20.10
2022-09-06T15:43:50.162Z,20.10
2022-09-06T15:46:23.179Z,20.10
2022-09-06T15:48:51.322Z,20.10
2022-09-06T15:51:19.977Z,20.20
2022-09-06T15:53:47.773Z,20.30
2022-09-06T15:56:17.037Z,20.30
2022-09-06T15:58:45.928Z,20.40
2022-09-06T16:01:18.545Z,20.40
2022-09-06T16:03:47.422Z,20.30
2022-09-06T16:06:26.879Z,20.30
2022-09-06T16:09:04.231Z,20.20
2022-09-06T16:11:33.441Z,20.10
2022-09-06T16:14:00.318Z,20.00
2022-09-06T16:16:27.242Z,19.90
2022-09-06T16:18:57.899Z,19.80
2022-09-06T16:21:29.557Z,19.70
2022-09-06T16:24:01.883Z,19.60
2022-09-06T16:26:35.120Z,19.60
2022-09-06T16:29:02.752Z,19.50
2022-09-06T16:31:30.196Z,19.50
2022-09-06T16:33:58.013Z,19.40
2022-09-06T16:36:28.018Z,19.40
2022-09-06T16:38:58.099Z,19.30
2022-09-06T16:41:42.514Z,19.20
2022-09-06T16:44:14.524Z,19.20
2022-09-06T16:46:49.867Z,19.20
2022-09-06T16:52:40.948Z,19.20
2022-09-06T16:55:45.344Z,19.10
2022-09-06T16:58:14.220Z,19.10
2022-09-06T17:00:47.004Z,19.10
2022-09-06T17:03:14.249Z,19.00
2022-09-06T17:05:41.230Z,19.00
2022-09-06T17:08:08.631Z,19.00
2022-09-06T17:10:38.527Z,19.00
2022-09-06T17:13:08.314Z,19.00
2022-09-06T17:15:57.520Z,18.90
2022-09-06T17:18:26.851Z,18.90
2022-09-06T17:21:05.512Z,18.80
2022-09-06T17:23:58.152Z,18.80
2022-09-06T17:26:26.623Z,18.80
2022-09-06T17:28:56.132Z,18.70
2022-09-06T17:31:25.948Z,18.70
2022-09-06T17:34:22.824Z,18.60
2022-09-06T17:36:50.222Z,18.60
2022-09-06T17:39:20.887Z,18.50
2022-09-06T17:41:50.323Z,18.40
2022-09-06T17:44:19.674Z,18.40
2022-09-06T17:47:08.900Z,18.40
2022-09-06T17:49:43.077Z,18.30
2022-09-06T17:52:10.772Z,18.20
2022-09-06T17:54:39.825Z,18.20
2022-09-06T17:57:06.693Z,18.10
2022-09-06T17:59:36.439Z,18.10
2022-09-06T18:02:04.575Z,18.00
2022-09-06T18:04:31.537Z,18.00
2022-09-06T18:06:58.764Z,17.90
2022-09-06T18:09:25.592Z,17.90
2022-09-06T18:11:52.694Z,17.80
2022-09-06T18:14:23.137Z,17.80
2022-09-06T18:16:51.851Z,17.70
2022-09-06T18:19:18.887Z,17.70
2022-09-06T18:21:46.673Z,17.60
2022-09-06T18:24:16.339Z,17.60
2022-09-06T18:26:46.433Z,17.50
2022-09-06T18:29:18.912Z,17.40
2022-09-06T18:31:49.275Z,17.40
2022-09-06T18:34:19.420Z,17.30
2022-09-06T18:36:47.823Z,17.30
2022-09-06T18:39:16.338Z,17.20
2022-09-06T18:42:28.859Z,17.20
2022-09-06T18:45:10.491Z,17.10
2022-09-06T18:47:42.650Z,17.10
2022-09-06T18:50:09.869Z,17.00
2022-09-06T18:52:38.440Z,17.00
2022-09-06T18:55:05.903Z,16.90
2022-09-06T18:57:32.804Z,16.90
2022-09-06T19:00:05.681Z,16.90
2022-09-06T19:02:34.720Z,16.80
2022-09-06T19:05:02.156Z,16.70
2022-09-06T19:07:29.944Z,16.70
2022-09-06T19:09:58.354Z,16.60
2022-09-06T19:12:30.921Z,16.60
2022-09-06T19:15:02.993Z,16.50
2022-09-06T19:17:34.666Z,16.50
2022-09-06T19:20:10.773Z,16.50
2022-09-06T19:22:39.105Z,16.40
2022-09-06T19:25:13.992Z,16.40
2022-09-06T19:27:40.854Z,16.30
2022-09-06T19:30:11.511Z,16.20
2022-09-06T19:32:40.662Z,16.10
2022-09-06T19:35:15.538Z,16.00
2022-09-06T19:37:42.692Z,16.00
2022-09-06T19:40:15.018Z,16.10
2022-09-06T19:42:47.094Z,16.10
2022-09-06T19:45:16.068Z,16.10
2022-09-06T19:47:42.958Z,16.10
2022-09-06T19:50:10.115Z,16.10
2022-09-06T19:52:36.963Z,16.10
2022-09-06T19:55:04.081Z,16.10
2022-09-06T19:57:31.028Z,16.20
2022-09-06T20:00:00.517Z,16.20
2022-09-06T20:02:27.614Z,16.20
2022-09-06T20:04:54.543Z,16.20
2022-09-06T20:07:21.470Z,16.20
2022-09-06T20:09:52.323Z,16.20
2022-09-06T20:12:20.016Z,16.20
2022-09-06T20:14:46.881Z,16.10
2022-09-06T20:17:32.781Z,16.10
2022-09-06T20:20:00.604Z,16.20
2022-09-06T20:22:27.443Z,16.20
2022-09-06T20:24:54.556Z,16.20
2022-09-06T20:27:22.213Z,16.20
2022-09-06T20:29:49.127Z,16.20
2022-09-06T20:32:16.196Z,16.20
2022-09-06T20:34:43.230Z,16.20
2022-09-06T20:37:10.157Z,16.20
2022-09-06T20:39:37.110Z,16.10
2022-09-06T20:42:04.192Z,16.10
2022-09-06T20:44:31.114Z,16.10
2022-09-06T20:46:58.053Z,16.10
2022-09-06T20:49:24.931Z,16.00
2022-09-06T20:51:51.918Z,16.00
2022-09-06T20:54:18.782Z,16.00
2022-09-06T20:56:45.617Z,15.90
2022-09-06T20:59:13.696Z,15.90
2022-09-06T21:01:43.231Z,15.90
2022-09-06T21:04:11.413Z,15.80
2022-09-06T21:06:39.350Z,15.80
2022-09-06T21:09:11.716Z,15.70
2022-09-06T21:11:38.955Z,15.70
2022-09-06T21:14:07.554Z,15.70
2022-09-06T21:16:34.745Z,15.60
2022-09-06T21:19:03.923Z,15.60
2022-09-06T21:21:32.026Z,15.60
2022-09-06T21:24:03.619Z,15.60
2022-09-06T21:26:31.061Z,15.60
2022-09-06T21:28:58.311Z,15.60
2022-09-06T21:31:33.646Z,15.60
2022-09-06T21:34:06.829Z,15.60
2022-09-06T21:36:37.406Z,15.50
2022-09-06T21:39:09.581Z,15.50
2022-09-06T21:41:37.842Z,15.50
2022-09-06T21:44:06.100Z,15.40
2022-09-06T21:46:35.539Z,15.40
2022-09-06T21:49:05.353Z,15.40
2022-09-06T21:51:32.709Z,15.30
2022-09-06T21:54:03.485Z,15.30
2022-09-06T21:56:31.583Z,15.30
2022-09-06T21:58:58.577Z,15.30
2022-09-06T22:01:31.655Z,15.30
2022-09-06T22:03:59.219Z,15.30
2022-09-06T22:06:28.874Z,15.20
2022-09-06T22:08:57.472Z,15.20
2022-09-06T22:11:27.172Z,15.20
2022-09-06T22:13:54.406Z,15.20
2022-09-06T22:16:22.629Z,15.20
2022-09-06T22:18:49.983Z,15.20
2022-09-06T22:21:20.149Z,15.20
2022-09-06T22:23:51.947Z,15.10
2022-09-06T22:26:19.109Z,15.10
2022-09-06T22:28:46.147Z,15.10
2022-09-06T22:31:13.380Z,15.10
2022-09-06T22:33:40.372Z,15.10
2022-09-06T22:36:07.568Z,15.00
2022-09-06T22:38:34.907Z,15.00
2022-09-06T22:41:02.031Z,15.00
2022-09-06T22:43:28.926Z,14.90
2022-09-06T22:46:03.326Z,14.90
2022-09-06T22:48:30.242Z,14.80
2022-09-06T22:50:57.312Z,14.70
2022-09-06T22:53:24.157Z,14.70
2022-09-06T22:55:51.060Z,14.70
2022-09-06T22:58:18.021Z,14.60
2022-09-06T23:00:45.654Z,14.60
2022-09-06T23:03:12.596Z,14.60
2022-09-06T23:05:39.668Z,14.60
2022-09-06T23:08:06.556Z,14.60
2022-09-06T23:10:38.615Z,14.50
2022-09-06T23:13:05.468Z,14.50
2022-09-06T23:15:35.452Z,14.50
2022-09-06T23:18:02.401Z,14.50
2022-09-06T23:20:29.360Z,14.50
2022-09-06T23:22:57.051Z,14.40
2022-09-06T23:25:24.011Z,14.30
2022-09-06T23:27:51.335Z,14.30
2022-09-06T23:30:19.079Z,14.20
2022-09-06T23:32:45.965Z,14.10
2022-09-06T23:35:12.835Z,14.00
2022-09-06T23:37:39.710Z,14.00
2022-09-06T23:40:09.274Z,13.90
2022-09-06T23:42:36.301Z,13.90
2022-09-06T23:45:03.493Z,13.80
2022-09-06T23:47:30.663Z,13.80
2022-09-06T23:49:57.504Z,13.80
2022-09-06T23:52:24.425Z,13.80
2022-09-06T23:54:51.360Z,13.80
2022-09-06T23:57:18.199Z,13.90
2022-09-06T23:59:44.986Z,13.90
